createdAt,value
2022-10-01T00:02:19.124Z,11.20
2022-10-01T00:07:23.183Z,10.93
2022-10-01T00:12:25.733Z,10.98
2022-10-01T00:17:29.274Z,10.80
2022-10-01T00:22:32.511Z,9.00
2022-10-01T00:27:35.976Z,4.25
2022-10-01T00:32:39.052Z,6.70
2022-10-01T00:37:42.896Z,8.15
2022-10-01T00:42:45.883Z,5.22
2022-10-01T00:47:52.028Z,7.18
2022-10-01T00:52:57.419Z,11.13
2022-10-01T00:58:00.640Z,7.22
2022-10-01T01:03:03.220Z,6.72
2022-10-01T01:08:06.596Z,10.77
2022-10-01T01:13:14.116Z,8.52
2022-10-01T01:18:51.583Z,5.18
2022-10-01T01:24:23.393Z,4.68
2022-10-01T01:29:33.965Z,6.80
2022-10-01T01:34:37.532Z,5.90
2022-10-01T01:39:44.202Z,8.68
2022-10-01T01:44:48.777Z,5.95
2022-10-01T01:49:53.392Z,8.07
2022-10-01T01:54:56.728Z,5.90
2022-10-01T02:00:02.342Z,7.43
2022-10-01T02:05:11.652Z,6.75
2022-10-01T02:10:52.108Z,6.45
2022-10-01T02:16:06.951Z,7.97
2022-10-01T02:21:27.090Z,7.18
2022-10-01T02:26:30.249Z,6.38
2022-10-01T02:31:33.611Z,4.32
2022-10-01T02:36:37.531Z,3.38
2022-10-01T02:41:43.149Z,4.50
2022-10-01T02:46:51.330Z,5.53
2022-10-01T02:51:59.624Z,4.53
2022-10-01T02:57:20.671Z,4.68
2022-10-01T03:02:26.884Z,5.97
2022-10-01T03:07:34.652Z,4.07
2022-10-01T03:12:38.419Z,3.40
2022-10-01T03:17:41.184Z,2.20
2022-10-01T03:22:46.963Z,3.45
2022-10-01T03:27:50.471Z,3.58
2022-10-01T03:32:53.243Z,1.95
2022-10-01T03:37:56.762Z,3.88
2022-10-01T03:42:59.575Z,2.65
2022-10-01T03:48:02.368Z,3.00
2022-10-01T03:53:06.531Z,3.20
2022-10-01T03:58:09.741Z,4.35
2022-10-01T04:03:12.990Z,4.75
2022-10-01T04:08:20.804Z,3.03
2022-10-01T04:13:26.395Z,4.90
2022-10-01T04:18:29.657Z,4.13
2022-10-01T04:23:32.316Z,5.25
2022-10-01T04:28:35.228Z,6.15
2022-10-01T04:33:40.592Z,4.78
2022-10-01T04:38:43.113Z,5.50
2022-10-01T04:43:45.822Z,6.32
2022-10-01T04:48:51.297Z,7.57
2022-10-01T04:53:54.005Z,7.63
2022-10-01T04:58:56.432Z,6.38
2022-10-01T05:04:00.252Z,7.32
2022-10-01T05:09:02.932Z,9.60
2022-10-01T05:14:07.193Z,7.47
2022-10-01T05:19:09.716Z,10.60
2022-10-01T05:24:12.234Z,8.60
2022-10-01T05:29:15.299Z,9.20
2022-10-01T05:34:19.166Z,8.93
2022-10-01T05:39:21.675Z,10.63
2022-10-01T05:44:24.872Z,12.98
2022-10-01T05:49:27.395Z,13.52
2022-10-01T05:54:29.970Z,13.15
2022-10-01T05:59:32.536Z,10.63
2022-10-01T06:04:40.328Z,12.30
2022-10-01T06:09:43.617Z,10.48
2022-10-01T06:14:46.715Z,10.32
2022-10-01T06:19:50.642Z,11.95
2022-10-01T06:24:56.599Z,12.70
2022-10-01T06:29:59.337Z,11.07
2022-10-01T06:35:03.175Z,15.40
2022-10-01T06:40:07.398Z,16.40
2022-10-01T06:45:10.329Z,15.20
2022-10-01T06:50:13.330Z,14.32
2022-10-01T06:55:21.379Z,14.38
2022-10-01T07:00:24.285Z,15.25
2022-10-01T07:05:28.206Z,13.43
2022-10-01T07:10:32.348Z,13.40
2022-10-01T07:15:53.944Z,17.42
2022-10-01T07:21:00.027Z,21.83
2022-10-01T07:26:05.619Z,17.30
2022-10-01T07:31:12.365Z,17.63
2022-10-01T07:36:15.066Z,14.40
2022-10-01T07:41:18.001Z,10.02
2022-10-01T07:46:20.764Z,13.85
2022-10-01T07:51:44.409Z,11.40
2022-10-01T07:56:49.607Z,9.30
2022-10-01T08:01:54.195Z,6.25
2022-10-01T08:06:57.609Z,7.63
2022-10-01T08:12:00.138Z,7.97
2022-10-01T08:17:02.852Z,7.85
2022-10-01T08:22:05.316Z,10.70
2022-10-01T08:27:08.185Z,11.63
2022-10-01T08:32:12.201Z,11.45
2022-10-01T08:37:14.825Z,12.48
2022-10-01T08:42:30.974Z,11.75
2022-10-01T08:47:40.949Z,10.30
2022-10-01T08:52:51.841Z,10.13
2022-10-01T08:57:58.334Z,12.30
2022-10-01T09:03:09.135Z,12.60
2022-10-01T09:08:45.961Z,11.05
2022-10-01T09:14:33.396Z,9.73
2022-10-01T09:20:02.591Z,7.97
2022-10-01T09:25:25.450Z,6.32
2022-10-01T09:30:29.170Z,6.65
2022-10-01T09:35:48.714Z,6.40
2022-10-01T09:40:55.139Z,5.03
2022-10-01T09:45:58.058Z,6.60
2022-10-01T09:51:16.832Z,8.57
2022-10-01T09:56:28.377Z,4.82
2022-10-01T10:01:47.174Z,3.92
2022-10-01T10:06:51.579Z,5.30
2022-10-01T10:11:56.665Z,3.42
2022-10-01T10:17:05.967Z,4.00
2022-10-01T10:22:15.132Z,3.42
2022-10-01T10:27:29.763Z,3.58
2022-10-01T10:32:32.934Z,2.65
2022-10-01T10:37:37.487Z,3.67
2022-10-01T10:42:49.088Z,3.83
2022-10-01T10:47:53.067Z,3.35
2022-10-01T10:52:56.842Z,3.35
2022-10-01T10:58:15.464Z,3.50
2022-10-01T11:03:21.647Z,2.90
2022-10-01T11:08:27.751Z,2.67
2022-10-01T11:13:52.417Z,3.28
2022-10-01T11:19:24.110Z,3.00
2022-10-01T11:24:46.139Z,3.00
2022-10-01T11:30:21.306Z,2.35
2022-10-01T11:35:44.189Z,1.90
2022-10-01T11:41:10.590Z,2.85
2022-10-01T11:46:28.365Z,3.35
2022-10-01T11:51:39.971Z,3.30
2022-10-01T11:57:13.145Z,4.00
2022-10-01T12:02:31.691Z,2.95
2022-10-01T12:07:57.454Z,2.97
2022-10-01T12:13:40.325Z,2.83
2022-10-01T12:18:55.548Z,3.15
2022-10-01T12:24:02.454Z,2.60
2022-10-01T12:29:43.428Z,2.70
2022-10-01T12:35:05.269Z,3.13
2022-10-01T12:40:19.927Z,2.45
2022-10-01T12:45:38.913Z,2.88
2022-10-01T12:51:21.526Z,3.25
2022-10-01T12:56:31.088Z,3.38
2022-10-01T13:01:43.108Z,3.30
2022-10-01T13:07:07.975Z,3.42
2022-10-01T13:12:35.800Z,2.92
2022-10-01T13:17:51.111Z,3.00
2022-10-01T13:23:10.759Z,3.13
2022-10-01T13:28:21.676Z,3.05
2022-10-01T13:33:36.134Z,2.97
2022-10-01T13:38:41.228Z,3.00
2022-10-01T13:44:09.042Z,2.63
2022-10-01T13:49:25.349Z,3.13
2022-10-01T14:01:27.341Z,3.17
2022-10-01T14:06:35.461Z,1.85
2022-10-01T14:11:58.095Z,2.88
2022-10-01T14:17:02.108Z,2.35
2022-10-01T14:22:19.500Z,2.88
2022-10-01T14:27:35.035Z,2.63
2022-10-01T14:32:59.629Z,2.75
2022-10-01T14:38:04.730Z,2.80
2022-10-01T14:43:22.557Z,2.80
2022-10-01T14:48:28.820Z,1.80
2022-10-01T14:53:34.717Z,3.55
2022-10-01T14:58:41.193Z,2.83
2022-10-01T15:03:44.373Z,2.10
2022-10-01T15:08:51.668Z,2.25
2022-10-01T15:13:57.651Z,2.50
2022-10-01T15:19:15.838Z,3.15
2022-10-01T15:24:32.105Z,3.40
2022-10-01T15:29:35.499Z,3.08
2022-10-01T15:34:42.977Z,3.20
2022-10-01T15:39:49.273Z,2.83
2022-10-01T15:45:26.390Z,3.30
2022-10-01T15:50:36.535Z,3.25
2022-10-01T15:55:52.381Z,2.58
2022-10-01T16:00:57.849Z,2.95
2022-10-01T16:06:02.823Z,2.67
2022-10-01T16:11:16.574Z,2.53
2022-10-01T16:16:29.722Z,3.38
2022-10-01T16:21:40.274Z,3.88
2022-10-01T16:26:44.331Z,2.65
2022-10-01T16:31:47.022Z,3.00
2022-10-01T16:36:50.773Z,2.75
2022-10-01T16:42:19.084Z,3.00
2022-10-01T16:47:17.882Z,2.95
2022-10-01T16:52:20.428Z,2.90
2022-10-01T16:57:23.053Z,2.55
2022-10-01T17:02:25.631Z,2.90
2022-10-01T17:07:29.158Z,3.28
2022-10-01T17:12:31.770Z,3.20
2022-10-01T17:17:36.931Z,3.03
2022-10-01T17:22:39.919Z,2.92
2022-10-01T17:27:42.814Z,2.85
2022-10-01T17:32:45.362Z,3.75
2022-10-01T17:37:48.085Z,4.45
2022-10-01T17:42:51.101Z,3.13
2022-10-01T17:47:54.017Z,2.97
2022-10-01T17:52:58.919Z,2.97
2022-10-01T17:58:01.654Z,3.17
2022-10-01T18:03:04.682Z,3.08
2022-10-01T18:08:08.080Z,4.50
2022-10-01T18:13:10.596Z,2.83
2022-10-01T18:23:39.219Z,3.47
2022-10-01T18:28:43.169Z,3.22
2022-10-01T18:33:51.917Z,2.85
2022-10-01T18:39:15.921Z,3.22
2022-10-01T18:44:20.675Z,3.60
2022-10-01T18:49:29.430Z,3.95
2022-10-01T18:54:52.893Z,4.93
2022-10-01T19:00:10.804Z,3.90
2022-10-01T19:05:24.923Z,4.88
2022-10-01T19:10:36.597Z,5.03
2022-10-01T19:15:45.105Z,5.60
2022-10-01T19:21:06.278Z,4.70
2022-10-01T19:26:24.153Z,4.80
2022-10-01T19:31:41.634Z,5.03
2022-10-01T19:36:50.546Z,4.75
2022-10-01T19:42:07.250Z,6.10
2022-10-01T19:47:29.332Z,4.40
2022-10-01T19:52:38.316Z,4.75
2022-10-01T19:57:46.131Z,4.70
2022-10-01T20:03:11.942Z,4.80
2022-10-01T20:08:44.330Z,4.88
2022-10-01T20:14:01.459Z,5.03
2022-10-01T20:19:06.972Z,4.95
2022-10-01T20:24:54.765Z,5.03
2022-10-01T20:30:06.608Z,4.78
2022-10-01T20:35:25.003Z,4.68
2022-10-01T20:40:29.259Z,5.07
2022-10-01T20:45:36.262Z,5.25
2022-10-01T20:50:45.284Z,4.82
2022-10-01T20:55:52.629Z,4.72
2022-10-01T21:01:13.045Z,4.45
2022-10-01T21:06:19.065Z,5.90
2022-10-01T21:11:26.812Z,4.70
2022-10-01T21:16:46.885Z,5.63
2022-10-01T21:22:04.619Z,4.63
2022-10-01T21:27:38.233Z,4.68
2022-10-01T21:33:30.358Z,6.50
2022-10-01T21:38:49.036Z,5.30
2022-10-01T21:44:21.447Z,6.07
2022-10-01T21:49:57.403Z,6.22
2022-10-01T21:55:23.471Z,5.05
2022-10-01T22:00:29.818Z,5.85
2022-10-01T22:05:50.338Z,5.97
2022-10-01T22:11:07.783Z,6.85
2022-10-01T22:16:14.395Z,6.78
2022-10-01T22:21:31.514Z,6.47
2022-10-01T22:26:38.344Z,6.20
2022-10-01T22:31:44.212Z,5.03
2022-10-01T22:36:54.326Z,7.00
2022-10-01T22:42:10.692Z,6.20
2022-10-01T22:47:28.316Z,6.88
2022-10-01T22:53:07.199Z,6.70
2022-10-01T22:58:31.068Z,7.50
2022-10-01T23:03:55.997Z,6.88
2022-10-01T23:09:07.099Z,7.15
2022-10-01T23:14:35.356Z,6.28
2022-10-01T23:19:59.204Z,5.70
2022-10-01T23:25:44.059Z,5.95
2022-10-01T23:31:05.083Z,5.65
2022-10-01T23:36:29.658Z,5.90
2022-10-01T23:41:55.351Z,5.50
2022-10-01T23:47:25.821Z,4.28
2022-10-01T23:52:39.151Z,5.93
2022-10-01T23:57:42.171Z,4.70
